Ana Sayfa
METAR-TAF:

METAR-TAF

Havaalanları :

Naval Auxiliary Landing Field Fentress

Chesapeake, Virginia, Amerika Birleşik Devletleri

Enlem: 36-42-03N, Boylam: 076-07-42W, yükseklik: 3 m

Güncel hava durumu gözlemi

Rapor saat 21:56 UTC de 34 dakika önce yapıldı.
Rüzgar kuzey/kuzeydoğudan 11 kt
Sıcaklık 26°C
Nem 45%
Basınç 1016 hPa
Görüş mesafesi: 16.1 km
Açık gökyüzü

METAR: KNFE 212156Z AUTO 02011KT 10SM CLR 26/13 A3000 RMK AO2 SLP160 T02560128

Saat: 18:30 (22:30 UTC)


TAF: eksik

4.000'den fazla havaalanı için hava durumu gözlemleri ve tahminleri (METAR ve TAF raporları).

Kullanılabilir istasyonlar harita üzerinde sarı ve kırmızı noktalarla gösterilir.

İstasyonun adını görmek için fareyi noktanın üzerinde gezdirin.

Sonrasında hava gözlem ve tahminlerini görmek için tıklayın.

Haritayı değiştirmek için: yaklaştırmak için siyah artı işaretli yeşil düğmeye ve uzaklaştırmak için de eksi işaretli düğmeye hızla tıklayın; bitişik haritalar için yeşil okları kullanın.


METAR-TAF: